sensor_id;sensor_type;location;lat;lon;timestamp;pressure;altitude;pressure_sealevel;temperature;humidity
81151;BME280;70629;-26.026;27.976;2023-06-24T00:00:29;87179.88;;;6.91;78.25
81151;BME280;70629;-26.026;27.976;2023-06-24T00:02:59;87182.47;;;6.63;79.82
81151;BME280;70629;-26.026;27.976;2023-06-24T00:05:31;87177.78;;;6.44;81.47
81151;BME280;70629;-26.026;27.976;2023-06-24T00:08:00;87176.03;;;6.75;79.20
81151;BME280;70629;-26.026;27.976;2023-06-24T00:10:30;87178.63;;;7.12;78.04
81151;BME280;70629;-26.026;27.976;2023-06-24T00:13:00;87177.22;;;6.91;78.09
81151;BME280;70629;-26.026;27.976;2023-06-24T00:15:32;87175.47;;;6.67;78.51
81151;BME280;70629;-26.026;27.976;2023-06-24T00:18:01;87176.72;;;6.66;78.01
81151;BME280;70629;-26.026;27.976;2023-06-24T00:20:34;87170.34;;;6.52;79.35
81151;BME280;70629;-26.026;27.976;2023-06-24T00:23:03;87179.06;;;6.16;80.43
81151;BME280;70629;-26.026;27.976;2023-06-24T00:25:32;87169.47;;;6.40;79.93
81151;BME280;70629;-26.026;27.976;2023-06-24T00:28:02;87171.00;;;6.06;81.52
81151;BME280;70629;-26.026;27.976;2023-06-24T00:30:31;87175.22;;;6.09;79.81
81151;BME280;70629;-26.026;27.976;2023-06-24T00:33:00;87179.25;;;6.28;79.54
81151;BME280;70629;-26.026;27.976;2023-06-24T00:35:31;87180.69;;;6.38;78.61
81151;BME280;70629;-26.026;27.976;2023-06-24T00:38:00;87178.13;;;6.67;77.55
81151;BME280;70629;-26.026;27.976;2023-06-24T00:40:29;87179.53;;;6.32;79.12
81151;BME280;70629;-26.026;27.976;2023-06-24T00:42:58;87177.50;;;6.49;78.67
81151;BME280;70629;-26.026;27.976;2023-06-24T00:45:28;87175.78;;;6.08;79.76
81151;BME280;70629;-26.026;27.976;2023-06-24T00:47:59;87169.19;;;6.45;78.78
81151;BME280;70629;-26.026;27.976;2023-06-24T00:50:28;87173.16;;;6.17;79.56
81151;BME280;70629;-26.026;27.976;2023-06-24T00:52:57;87160.47;;;6.45;77.75
81151;BME280;70629;-26.026;27.976;2023-06-24T00:55:26;87158.03;;;6.03;79.45
81151;BME280;70629;-26.026;27.976;2023-06-24T00:57:57;87166.75;;;6.30;78.69
81151;BME280;70629;-26.026;27.976;2023-06-24T01:00:28;87160.69;;;6.30;77.76
81151;BME280;70629;-26.026;27.976;2023-06-24T01:02:57;87153.56;;;6.42;76.81
81151;BME280;70629;-26.026;27.976;2023-06-24T01:05:28;87152.22;;;6.60;75.93
81151;BME280;70629;-26.026;27.976;2023-06-24T01:07:58;87151.78;;;6.54;77.63
81151;BME280;70629;-26.026;27.976;2023-06-24T01:10:28;87156.03;;;6.21;79.71
81151;BME280;70629;-26.026;27.976;2023-06-24T01:12:57;87151.63;;;6.52;78.39
81151;BME280;70629;-26.026;27.976;2023-06-24T01:15:26;87149.47;;;6.41;77.99
81151;BME280;70629;-26.026;27.976;2023-06-24T01:18:24;87148.78;;;6.04;79.74
81151;BME280;70629;-26.026;27.976;2023-06-24T01:26:38;87153.81;;;5.73;79.96
81151;BME280;70629;-26.026;27.976;2023-06-24T01:29:42;87154.22;;;5.69;79.87
81151;BME280;70629;-26.026;27.976;2023-06-24T01:32:22;87151.31;;;6.02;79.23
81151;BME280;70629;-26.026;27.976;2023-06-24T01:35:08;87147.94;;;6.01;78.93
81151;BME280;70629;-26.026;27.976;2023-06-24T01:37:45;87153.03;;;5.63;80.10
81151;BME280;70629;-26.026;27.976;2023-06-24T01:42:52;87149.84;;;5.91;79.37
81151;BME280;70629;-26.026;27.976;2023-06-24T01:45:25;87147.72;;;5.90;78.25
81151;BME280;70629;-26.026;27.976;2023-06-24T01:48:02;87150.06;;;6.12;77.58
81151;BME280;70629;-26.026;27.976;2023-06-24T01:50:32;87155.06;;;6.26;77.76
81151;BME280;70629;-26.026;27.976;2023-06-24T01:53:05;87146.47;;;6.27;77.36
81151;BME280;70629;-26.026;27.976;2023-06-24T01:55:35;87149.41;;;5.68;79.65
81151;BME280;70629;-26.026;27.976;2023-06-24T01:58:07;87147.31;;;5.93;78.39
81151;BME280;70629;-26.026;27.976;2023-06-24T02:00:37;87146.69;;;6.02;78.36
81151;BME280;70629;-26.026;27.976;2023-06-24T02:03:06;87149.13;;;5.64;79.87
81151;BME280;70629;-26.026;27.976;2023-06-24T02:05:37;87142.13;;;5.51;80.66
81151;BME280;70629;-26.026;27.976;2023-06-24T02:08:09;87139.22;;;5.57;79.83
81151;BME280;70629;-26.026;27.976;2023-06-24T02:10:40;87144.16;;;5.60;79.65
81151;BME280;70629;-26.026;27.976;2023-06-24T02:13:10;87143.47;;;5.60;80.66
81151;BME280;70629;-26.026;27.976;2023-06-24T02:15:41;87132.50;;;5.83;79.01
81151;BME280;70629;-26.026;27.976;2023-06-24T02:18:12;87137.13;;;5.82;79.69
81151;BME280;70629;-26.026;27.976;2023-06-24T02:20:44;87137.13;;;6.09;78.45
81151;BME280;70629;-26.026;27.976;2023-06-24T02:23:14;87132.91;;;5.79;79.14
81151;BME280;70629;-26.026;27.976;2023-06-24T02:25:43;87131.69;;;5.63;79.03
81151;BME280;70629;-26.026;27.976;2023-06-24T02:28:12;87138.97;;;5.36;79.72
81151;BME280;70629;-26.026;27.976;2023-06-24T02:30:42;87135.25;;;5.48;79.57
81151;BME280;70629;-26.026;27.976;2023-06-24T02:33:12;87130.81;;;5.16;81.18
81151;BME280;70629;-26.026;27.976;2023-06-24T02:35:41;87126.47;;;5.55;79.15
81151;BME280;70629;-26.026;27.976;2023-06-24T02:38:10;87128.16;;;5.60;78.50
81151;BME280;70629;-26.026;27.976;2023-06-24T02:40:39;87126.84;;;5.52;79.37
81151;BME280;70629;-26.026;27.976;2023-06-24T02:43:08;87124.50;;;5.39;79.51
81151;BME280;70629;-26.026;27.976;2023-06-24T02:45:38;87120.47;;;5.20;80.60
81151;BME280;70629;-26.026;27.976;2023-06-24T02:48:10;87124.03;;;5.50;79.54
81151;BME280;70629;-26.026;27.976;2023-06-24T02:50:40;87116.09;;;5.59;79.32
81151;BME280;70629;-26.026;27.976;2023-06-24T02:53:12;87119.06;;;5.90;77.52
81151;BME280;70629;-26.026;27.976;2023-06-24T02:55:43;87118.28;;;5.26;80.10
81151;BME280;70629;-26.026;27.976;2023-06-24T02:58:13;87119.41;;;5.77;77.38
81151;BME280;70629;-26.026;27.976;2023-06-24T03:00:42;87121.38;;;5.50;79.43
81151;BME280;70629;-26.026;27.976;2023-06-24T03:03:12;87123.59;;;5.26;80.42
81151;BME280;70629;-26.026;27.976;2023-06-24T03:05:41;87120.06;;;5.24;79.92
81151;BME280;70629;-26.026;27.976;2023-06-24T03:08:13;87117.63;;;5.18;80.53
81151;BME280;70629;-26.026;27.976;2023-06-24T03:10:42;87118.75;;;5.15;81.27
81151;BME280;70629;-26.026;27.976;2023-06-24T03:13:11;87135.09;;;5.46;79.01
81151;BME280;70629;-26.026;27.976;2023-06-24T03:15:40;87132.22;;;5.35;79.58
81151;BME280;70629;-26.026;27.976;2023-06-24T03:18:09;87132.53;;;5.04;79.88
81151;BME280;70629;-26.026;27.976;2023-06-24T03:20:38;87126.28;;;5.09;80.72
81151;BME280;70629;-26.026;27.976;2023-06-24T03:23:07;87121.81;;;4.95;80.45
81151;BME280;70629;-26.026;27.976;2023-06-24T03:25:37;87128.22;;;5.09;79.85
81151;BME280;70629;-26.026;27.976;2023-06-24T03:28:06;87127.31;;;4.97;80.06
81151;BME280;70629;-26.026;27.976;2023-06-24T03:30:36;87131.53;;;5.00;79.90
81151;BME280;70629;-26.026;27.976;2023-06-24T03:33:05;87132.97;;;5.45;77.71
81151;BME280;70629;-26.026;27.976;2023-06-24T03:35:34;87138.69;;;5.58;77.91
81151;BME280;70629;-26.026;27.976;2023-06-24T03:38:03;87139.53;;;5.00;80.30
81151;BME280;70629;-26.026;27.976;2023-06-24T03:40:32;87150.41;;;5.46;78.56
81151;BME280;70629;-26.026;27.976;2023-06-24T03:43:01;87151.00;;;5.54;77.34
81151;BME280;70629;-26.026;27.976;2023-06-24T03:45:30;87142.75;;;5.59;77.24
81151;BME280;70629;-26.026;27.976;2023-06-24T03:48:00;87147.44;;;5.24;79.20
81151;BME280;70629;-26.026;27.976;2023-06-24T03:50:29;87146.28;;;5.01;79.90
81151;BME280;70629;-26.026;27.976;2023-06-24T03:52:58;87141.97;;;4.88;80.51
81151;BME280;70629;-26.026;27.976;2023-06-24T03:55:27;87150.81;;;5.25;78.94
81151;BME280;70629;-26.026;27.976;2023-06-24T03:57:56;87150.41;;;5.46;77.73
81151;BME280;70629;-26.026;27.976;2023-06-24T04:00:25;87148.09;;;4.98;79.51
81151;BME280;70629;-26.026;27.976;2023-06-24T04:02:54;87151.44;;;5.16;78.19
81151;BME280;70629;-26.026;27.976;2023-06-24T04:05:23;87147.59;;;5.09;79.47
81151;BME280;70629;-26.026;27.976;2023-06-24T04:07:53;87153.88;;;5.04;79.05
81151;BME280;70629;-26.026;27.976;2023-06-24T04:10:22;87159.97;;;4.63;80.10
81151;BME280;70629;-26.026;27.976;2023-06-24T04:12:52;87163.00;;;4.59;80.01
81151;BME280;70629;-26.026;27.976;2023-06-24T04:15:21;87164.78;;;4.99;78.42
81151;BME280;70629;-26.026;27.976;2023-06-24T04:17:50;87159.13;;;5.29;76.80
81151;BME280;70629;-26.026;27.976;2023-06-24T04:20:19;87159.69;;;4.93;78.07
81151;BME280;70629;-26.026;27.976;2023-06-24T04:22:48;87163.13;;;5.03;78.60
81151;BME280;70629;-26.026;27.976;2023-06-24T04:25:17;87159.28;;;5.31;77.60
81151;BME280;70629;-26.026;27.976;2023-06-24T04:27:46;87166.06;;;4.56;80.53
81151;BME280;70629;-26.026;27.976;2023-06-24T04:30:15;87171.34;;;4.80;79.80
81151;BME280;70629;-26.026;27.976;2023-06-24T04:32:44;87169.41;;;4.98;78.87
81151;BME280;70629;-26.026;27.976;2023-06-24T04:35:13;87170.38;;;4.51;81.24
81151;BME280;70629;-26.026;27.976;2023-06-24T04:37:42;87172.22;;;5.00;79.45
81151;BME280;70629;-26.026;27.976;2023-06-24T04:40:14;87167.94;;;4.63;80.54
81151;BME280;70629;-26.026;27.976;2023-06-24T04:42:43;87177.47;;;4.49;80.81
81151;BME280;70629;-26.026;27.976;2023-06-24T04:45:12;87180.97;;;4.76;80.74
81151;BME280;70629;-26.026;27.976;2023-06-24T04:47:41;87179.56;;;4.75;79.64
81151;BME280;70629;-26.026;27.976;2023-06-24T04:50:10;87180.31;;;4.51;80.98
81151;BME280;70629;-26.026;27.976;2023-06-24T04:52:40;87189.63;;;4.17;82.15
81151;BME280;70629;-26.026;27.976;2023-06-24T04:55:09;87180.91;;;4.41;81.02
81151;BME280;70629;-26.026;27.976;2023-06-24T04:57:38;87180.84;;;4.49;80.69
81151;BME280;70629;-26.026;27.976;2023-06-24T05:00:08;87183.19;;;5.04;78.39
81151;BME280;70629;-26.026;27.976;2023-06-24T05:02:37;87189.00;;;4.93;77.30
81151;BME280;70629;-26.026;27.976;2023-06-24T05:05:06;87190.41;;;5.28;76.98
81151;BME280;70629;-26.026;27.976;2023-06-24T05:07:35;87188.69;;;4.89;78.35
81151;BME280;70629;-26.026;27.976;2023-06-24T05:10:05;87186.78;;;4.40;80.88
81151;BME280;70629;-26.026;27.976;2023-06-24T05:12:34;87188.41;;;4.35;81.29
81151;BME280;70629;-26.026;27.976;2023-06-24T05:15:03;87193.31;;;4.47;81.28
81151;BME280;70629;-26.026;27.976;2023-06-24T05:17:33;87192.28;;;4.84;79.64
81151;BME280;70629;-26.026;27.976;2023-06-24T05:20:02;87184.53;;;4.54;80.98
81151;BME280;70629;-26.026;27.976;2023-06-24T05:22:31;87186.50;;;4.53;80.52
81151;BME280;70629;-26.026;27.976;2023-06-24T05:25:00;87196.41;;;4.60;80.80
81151;BME280;70629;-26.026;27.976;2023-06-24T05:27:29;87200.41;;;4.86;79.45
81151;BME280;70629;-26.026;27.976;2023-06-24T05:29:58;87199.47;;;4.74;80.30
81151;BME280;70629;-26.026;27.976;2023-06-24T05:32:27;87207.38;;;4.64;81.29
81151;BME280;70629;-26.026;27.976;2023-06-24T05:34:56;87201.88;;;5.21;79.23
81151;BME280;70629;-26.026;27.976;2023-06-24T05:37:25;87199.25;;;4.97;80.33
81151;BME280;70629;-26.026;27.976;2023-06-24T05:39:55;87208.38;;;5.45;78.63
81151;BME280;70629;-26.026;27.976;2023-06-24T05:42:27;87200.53;;;5.47;79.29
81151;BME280;70629;-26.026;27.976;2023-06-24T05:44:56;87196.06;;;5.15;80.68
81151;BME280;70629;-26.026;27.976;2023-06-24T05:47:25;87201.22;;;5.48;79.90
81151;BME280;70629;-26.026;27.976;2023-06-24T05:49:54;87206.25;;;5.44;81.06
81151;BME280;70629;-26.026;27.976;2023-06-24T05:52:24;87207.28;;;5.48;81.45
81151;BME280;70629;-26.026;27.976;2023-06-24T05:54:53;87204.44;;;5.46;81.83
81151;BME280;70629;-26.026;27.976;2023-06-24T05:57:22;87203.38;;;5.76;82.12
81151;BME280;70629;-26.026;27.976;2023-06-24T05:59:51;87204.94;;;5.96;81.94
81151;BME280;70629;-26.026;27.976;2023-06-24T06:02:20;87208.16;;;6.22;80.92
81151;BME280;70629;-26.026;27.976;2023-06-24T06:04:50;87206.94;;;6.32;80.82
81151;BME280;70629;-26.026;27.976;2023-06-24T06:07:19;87198.81;;;6.30;82.29
81151;BME280;70629;-26.026;27.976;2023-06-24T06:09:48;87209.06;;;6.34;82.13
81151;BME280;70629;-26.026;27.976;2023-06-24T06:12:17;87212.53;;;6.53;82.11
81151;BME280;70629;-26.026;27.976;2023-06-24T06:14:46;87213.31;;;6.83;81.23
81151;BME280;70629;-26.026;27.976;2023-06-24T06:17:15;87212.81;;;7.03;81.66
81151;BME280;70629;-26.026;27.976;2023-06-24T06:19:44;87216.63;;;7.00;80.88
81151;BME280;70629;-26.026;27.976;2023-06-24T06:22:18;87214.63;;;6.91;82.39
81151;BME280;70629;-26.026;27.976;2023-06-24T06:24:47;87221.03;;;7.15;80.82
81151;BME280;70629;-26.026;27.976;2023-06-24T06:27:17;87213.84;;;7.27;79.97
81151;BME280;70629;-26.026;27.976;2023-06-24T06:29:46;87215.03;;;7.53;79.42
81151;BME280;70629;-26.026;27.976;2023-06-24T06:32:15;87218.53;;;7.56;80.35
81151;BME280;70629;-26.026;27.976;2023-06-24T06:34:44;87228.81;;;7.78;78.99
81151;BME280;70629;-26.026;27.976;2023-06-24T06:37:12;87222.88;;;8.09;77.39
81151;BME280;70629;-26.026;27.976;2023-06-24T06:39:41;87221.91;;;8.04;79.31
81151;BME280;70629;-26.026;27.976;2023-06-24T06:42:10;87226.81;;;8.27;78.57
81151;BME280;70629;-26.026;27.976;2023-06-24T06:44:39;87234.84;;;8.27;79.32
81151;BME280;70629;-26.026;27.976;2023-06-24T06:47:10;87235.69;;;8.29;78.18
81151;BME280;70629;-26.026;27.976;2023-06-24T06:49:39;87232.72;;;8.45;77.77
81151;BME280;70629;-26.026;27.976;2023-06-24T06:52:08;87234.81;;;8.56;77.61
81151;BME280;70629;-26.026;27.976;2023-06-24T06:54:37;87239.53;;;8.76;77.40
81151;BME280;70629;-26.026;27.976;2023-06-24T06:57:06;87242.75;;;8.85;78.46
81151;BME280;70629;-26.026;27.976;2023-06-24T06:59:35;87239.72;;;9.00;77.40
81151;BME280;70629;-26.026;27.976;2023-06-24T07:02:04;87237.63;;;8.98;77.81
81151;BME280;70629;-26.026;27.976;2023-06-24T07:04:34;87250.97;;;9.17;78.21
81151;BME280;70629;-26.026;27.976;2023-06-24T07:07:03;87246.69;;;9.24;77.78
81151;BME280;70629;-26.026;27.976;2023-06-24T07:09:32;87250.22;;;9.27;78.04
81151;BME280;70629;-26.026;27.976;2023-06-24T07:12:01;87251.63;;;9.49;77.03
81151;BME280;70629;-26.026;27.976;2023-06-24T07:14:30;87253.38;;;9.65;76.94
81151;BME280;70629;-26.026;27.976;2023-06-24T07:17:00;87249.59;;;10.01;75.54
81151;BME280;70629;-26.026;27.976;2023-06-24T07:19:29;87251.63;;;10.78;73.71
81151;BME280;70629;-26.026;27.976;2023-06-24T07:21:58;87250.69;;;10.29;74.87
81151;BME280;70629;-26.026;27.976;2023-06-24T07:24:27;87251.72;;;10.24;75.73
81151;BME280;70629;-26.026;27.976;2023-06-24T07:26:56;87250.69;;;10.29;75.93
81151;BME280;70629;-26.026;27.976;2023-06-24T07:29:25;87251.16;;;10.37;75.86
81151;BME280;70629;-26.026;27.976;2023-06-24T07:31:54;87241.75;;;10.60;74.50
81151;BME280;70629;-26.026;27.976;2023-06-24T07:34:23;87245.56;;;10.78;74.43
81151;BME280;70629;-26.026;27.976;2023-06-24T07:36:52;87255.38;;;10.85;74.57
81151;BME280;70629;-26.026;27.976;2023-06-24T07:39:21;87253.78;;;10.91;74.88
81151;BME280;70629;-26.026;27.976;2023-06-24T07:41:50;87251.19;;;11.17;73.57
81151;BME280;70629;-26.026;27.976;2023-06-24T07:44:19;87252.75;;;11.43;72.31
81151;BME280;70629;-26.026;27.976;2023-06-24T07:46:48;87239.47;;;11.59;72.40
81151;BME280;70629;-26.026;27.976;2023-06-24T07:49:19;87248.88;;;11.81;71.67
81151;BME280;70629;-26.026;27.976;2023-06-24T07:51:48;87248.50;;;11.86;72.24
81151;BME280;70629;-26.026;27.976;2023-06-24T07:54:17;87252.94;;;12.05;70.90
81151;BME280;70629;-26.026;27.976;2023-06-24T07:56:46;87255.00;;;12.18;70.61
81151;BME280;70629;-26.026;27.976;2023-06-24T07:59:15;87254.03;;;12.25;70.52
81151;BME280;70629;-26.026;27.976;2023-06-24T08:01:44;87252.09;;;12.40;70.47
81151;BME280;70629;-26.026;27.976;2023-06-24T08:04:14;87244.41;;;12.59;69.62
81151;BME280;70629;-26.026;27.976;2023-06-24T08:06:44;87245.16;;;12.73;68.97
81151;BME280;70629;-26.026;27.976;2023-06-24T08:09:16;87251.63;;;12.94;68.17
81151;BME280;70629;-26.026;27.976;2023-06-24T08:11:45;87245.91;;;13.13;67.73
81151;BME280;70629;-26.026;27.976;2023-06-24T08:14:14;87245.41;;;13.16;67.47
81151;BME280;70629;-26.026;27.976;2023-06-24T08:16:43;87250.78;;;13.42;66.36
81151;BME280;70629;-26.026;27.976;2023-06-24T08:19:13;87244.56;;;13.53;66.26
81151;BME280;70629;-26.026;27.976;2023-06-24T08:21:42;87245.78;;;13.63;66.04
81151;BME280;70629;-26.026;27.976;2023-06-24T08:24:11;87242.97;;;13.75;65.36
81151;BME280;70629;-26.026;27.976;2023-06-24T08:26:40;87242.56;;;13.94;64.86
81151;BME280;70629;-26.026;27.976;2023-06-24T08:29:09;87241.47;;;13.99;65.35
81151;BME280;70629;-26.026;27.976;2023-06-24T08:31:38;87237.41;;;14.28;63.59
81151;BME280;70629;-26.026;27.976;2023-06-24T08:34:07;87236.63;;;14.39;62.28
81151;BME280;70629;-26.026;27.976;2023-06-24T08:36:36;87226.19;;;14.47;62.91
81151;BME280;70629;-26.026;27.976;2023-06-24T08:39:05;87227.03;;;14.65;62.40
81151;BME280;70629;-26.026;27.976;2023-06-24T08:41:34;87226.59;;;14.71;62.12
81151;BME280;70629;-26.026;27.976;2023-06-24T08:44:03;87219.47;;;14.77;61.61
81151;BME280;70629;-26.026;27.976;2023-06-24T08:46:32;87230.06;;;14.87;61.40
81151;BME280;70629;-26.026;27.976;2023-06-24T08:52:03;87211.22;;;15.05;61.28
81151;BME280;70629;-26.026;27.976;2023-06-24T08:54:36;87217.28;;;15.19;61.24
81151;BME280;70629;-26.026;27.976;2023-06-24T08:57:07;87222.34;;;15.11;61.55
81151;BME280;70629;-26.026;27.976;2023-06-24T08:59:39;87209.66;;;15.47;60.68
81151;BME280;70629;-26.026;27.976;2023-06-24T09:02:08;87206.19;;;15.44;60.01
81151;BME280;70629;-26.026;27.976;2023-06-24T09:04:37;87201.38;;;15.43;61.57
81151;BME280;70629;-26.026;27.976;2023-06-24T09:07:06;87203.75;;;15.66;58.71
81151;BME280;70629;-26.026;27.976;2023-06-24T09:09:42;87199.00;;;15.82;58.66
81151;BME280;70629;-26.026;27.976;2023-06-24T09:12:14;87195.94;;;15.90;58.21
81151;BME280;70629;-26.026;27.976;2023-06-24T09:14:48;87192.28;;;16.16;56.88
81151;BME280;70629;-26.026;27.976;2023-06-24T09:17:19;87190.25;;;16.17;56.32
81151;BME280;70629;-26.026;27.976;2023-06-24T09:19:51;87187.63;;;16.19;57.05
81151;BME280;70629;-26.026;27.976;2023-06-24T09:22:20;87185.88;;;16.43;55.21
81151;BME280;70629;-26.026;27.976;2023-06-24T09:24:49;87184.44;;;16.58;55.30
81151;BME280;70629;-26.026;27.976;2023-06-24T09:27:18;87181.34;;;16.65;54.63
81151;BME280;70629;-26.026;27.976;2023-06-24T09:29:52;87181.06;;;16.42;54.60
81151;BME280;70629;-26.026;27.976;2023-06-24T09:32:21;87180.19;;;16.71;54.21
81151;BME280;70629;-26.026;27.976;2023-06-24T09:34:50;87177.69;;;16.94;54.40
81151;BME280;70629;-26.026;27.976;2023-06-24T09:37:23;87169.81;;;17.20;53.41
81151;BME280;70629;-26.026;27.976;2023-06-24T09:39:55;87166.28;;;16.98;51.09
81151;BME280;70629;-26.026;27.976;2023-06-24T09:42:25;87166.84;;;17.14;50.21
81151;BME280;70629;-26.026;27.976;2023-06-24T09:44:55;87158.50;;;17.08;51.40
81151;BME280;70629;-26.026;27.976;2023-06-24T09:47:24;87153.94;;;17.32;50.71
81151;BME280;70629;-26.026;27.976;2023-06-24T09:49:55;87150.63;;;17.53;52.03
81151;BME280;70629;-26.026;27.976;2023-06-24T09:52:25;87144.59;;;17.75;50.40
81151;BME280;70629;-26.026;27.976;2023-06-24T09:54:55;87137.31;;;18.01;48.41
81151;BME280;70629;-26.026;27.976;2023-06-24T09:57:28;87139.59;;;18.09;49.35
81151;BME280;70629;-26.026;27.976;2023-06-24T09:59:59;87130.19;;;17.92;48.58
81151;BME280;70629;-26.026;27.976;2023-06-24T10:02:29;87132.63;;;18.45;46.19
81151;BME280;70629;-26.026;27.976;2023-06-24T10:04:59;87135.19;;;18.19;46.68
81151;BME280;70629;-26.026;27.976;2023-06-24T10:07:31;87131.19;;;18.22;48.68
81151;BME280;70629;-26.026;27.976;2023-06-24T10:10:03;87119.75;;;18.48;46.70
81151;BME280;70629;-26.026;27.976;2023-06-24T10:12:34;87115.69;;;18.49;47.76
81151;BME280;70629;-26.026;27.976;2023-06-24T10:15:04;87106.38;;;18.34;46.20
81151;BME280;70629;-26.026;27.976;2023-06-24T10:17:34;87101.91;;;18.64;45.41
81151;BME280;70629;-26.026;27.976;2023-06-24T10:20:04;87100.44;;;19.07;45.13
81151;BME280;70629;-26.026;27.976;2023-06-24T10:22:34;87095.72;;;19.09;45.87
81151;BME280;70629;-26.026;27.976;2023-06-24T10:25:07;87089.28;;;19.46;44.71
81151;BME280;70629;-26.026;27.976;2023-06-24T10:27:39;87085.22;;;19.23;43.31
81151;BME280;70629;-26.026;27.976;2023-06-24T10:32:51;87083.63;;;19.40;42.42
81151;BME280;70629;-26.026;27.976;2023-06-24T10:35:28;87082.72;;;19.32;45.17
81151;BME280;70629;-26.026;27.976;2023-06-24T10:38:00;87074.72;;;19.38;43.03
81151;BME280;70629;-26.026;27.976;2023-06-24T10:40:40;87067.97;;;19.64;42.75
81151;BME280;70629;-26.026;27.976;2023-06-24T10:43:29;87072.47;;;19.54;42.58
81151;BME280;70629;-26.026;27.976;2023-06-24T10:45:58;87058.97;;;19.60;43.21
81151;BME280;70629;-26.026;27.976;2023-06-24T10:48:28;87056.91;;;19.58;43.16
81151;BME280;70629;-26.026;27.976;2023-06-24T10:50:57;87051.53;;;19.62;41.03
81151;BME280;70629;-26.026;27.976;2023-06-24T10:53:26;87052.72;;;19.55;40.12
81151;BME280;70629;-26.026;27.976;2023-06-24T10:55:58;87048.19;;;19.92;40.57
81151;BME280;70629;-26.026;27.976;2023-06-24T10:58:27;87040.34;;;20.06;39.09
81151;BME280;70629;-26.026;27.976;2023-06-24T11:01:06;87039.72;;;20.07;40.01
81151;BME280;70629;-26.026;27.976;2023-06-24T11:03:40;87033.53;;;20.33;38.11
81151;BME280;70629;-26.026;27.976;2023-06-24T11:06:10;87024.88;;;20.14;36.73
81151;BME280;70629;-26.026;27.976;2023-06-24T11:08:44;87020.78;;;20.15;37.32
81151;BME280;70629;-26.026;27.976;2023-06-24T11:11:22;87018.00;;;20.13;36.24
81151;BME280;70629;-26.026;27.976;2023-06-24T11:13:51;87014.22;;;20.27;37.22
81151;BME280;70629;-26.026;27.976;2023-06-24T11:16:22;87007.25;;;20.20;37.15
81151;BME280;70629;-26.026;27.976;2023-06-24T11:18:51;87005.28;;;20.52;36.75
81151;BME280;70629;-26.026;27.976;2023-06-24T11:21:20;86996.31;;;20.79;36.20
81151;BME280;70629;-26.026;27.976;2023-06-24T11:23:49;86995.22;;;20.92;35.01
81151;BME280;70629;-26.026;27.976;2023-06-24T11:26:18;86991.72;;;20.58;33.05
81151;BME280;70629;-26.026;27.976;2023-06-24T11:28:47;86988.88;;;20.84;32.77
81151;BME280;70629;-26.026;27.976;2023-06-24T11:31:17;86983.16;;;20.72;34.50
81151;BME280;70629;-26.026;27.976;2023-06-24T11:33:49;86976.13;;;20.63;31.48
81151;BME280;70629;-26.026;27.976;2023-06-24T11:36:22;86974.13;;;20.65;32.58
81151;BME280;70629;-26.026;27.976;2023-06-24T11:38:51;86965.59;;;20.81;32.54
81151;BME280;70629;-26.026;27.976;2023-06-24T11:41:21;86960.69;;;20.75;31.54
81151;BME280;70629;-26.026;27.976;2023-06-24T11:43:51;86961.28;;;20.72;34.36
81151;BME280;70629;-26.026;27.976;2023-06-24T11:46:23;86959.53;;;20.54;30.83
81151;BME280;70629;-26.026;27.976;2023-06-24T11:49:03;86959.06;;;20.64;31.53
81151;BME280;70629;-26.026;27.976;2023-06-24T11:51:33;86952.88;;;20.62;33.50
81151;BME280;70629;-26.026;27.976;2023-06-24T11:54:04;86949.78;;;20.45;32.54
81151;BME280;70629;-26.026;27.976;2023-06-24T11:56:38;86949.41;;;20.59;32.05
81151;BME280;70629;-26.026;27.976;2023-06-24T11:59:23;86943.47;;;20.39;30.43
81151;BME280;70629;-26.026;27.976;2023-06-24T12:01:57;86949.06;;;20.43;32.90
81151;BME280;70629;-26.026;27.976;2023-06-24T12:04:33;86943.84;;;20.25;32.89
81151;BME280;70629;-26.026;27.976;2023-06-24T12:07:03;86939.34;;;20.36;30.68
81151;BME280;70629;-26.026;27.976;2023-06-24T12:09:33;86934.31;;;20.56;30.88
81151;BME280;70629;-26.026;27.976;2023-06-24T12:12:02;86935.09;;;20.61;31.37
81151;BME280;70629;-26.026;27.976;2023-06-24T12:14:31;86936.91;;;20.20;30.51
81151;BME280;70629;-26.026;27.976;2023-06-24T12:16:59;86935.97;;;20.37;31.41
81151;BME280;70629;-26.026;27.976;2023-06-24T12:19:30;86931.34;;;20.46;30.77
81151;BME280;70629;-26.026;27.976;2023-06-24T12:22:00;86928.31;;;20.32;29.87
81151;BME280;70629;-26.026;27.976;2023-06-24T12:24:29;86922.47;;;20.15;30.38
81151;BME280;70629;-26.026;27.976;2023-06-24T12:26:58;86925.38;;;20.24;29.52
81151;BME280;70629;-26.026;27.976;2023-06-24T12:29:27;86917.28;;;20.28;28.56
81151;BME280;70629;-26.026;27.976;2023-06-24T12:31:56;86917.78;;;20.20;30.28
81151;BME280;70629;-26.026;27.976;2023-06-24T12:34:25;86911.94;;;20.32;30.60
81151;BME280;70629;-26.026;27.976;2023-06-24T12:36:54;86908.81;;;20.15;30.10
81151;BME280;70629;-26.026;27.976;2023-06-24T12:39:23;86910.94;;;20.19;30.64
81151;BME280;70629;-26.026;27.976;2023-06-24T12:41:52;86910.16;;;20.14;30.81
81151;BME280;70629;-26.026;27.976;2023-06-24T12:44:21;86909.28;;;20.06;30.04
81151;BME280;70629;-26.026;27.976;2023-06-24T12:46:50;86907.22;;;20.04;28.39
81151;BME280;70629;-26.026;27.976;2023-06-24T12:49:19;86908.13;;;20.15;28.67
81151;BME280;70629;-26.026;27.976;2023-06-24T12:51:48;86908.69;;;20.09;28.65
81151;BME280;70629;-26.026;27.976;2023-06-24T12:54:17;86910.88;;;20.15;29.60
81151;BME280;70629;-26.026;27.976;2023-06-24T12:56:46;86906.78;;;20.16;30.35
81151;BME280;70629;-26.026;27.976;2023-06-24T12:59:16;86904.25;;;19.94;29.27
81151;BME280;70629;-26.026;27.976;2023-06-24T13:01:45;86913.16;;;19.97;30.94
81151;BME280;70629;-26.026;27.976;2023-06-24T13:04:14;86901.13;;;20.08;29.29
81151;BME280;70629;-26.026;27.976;2023-06-24T13:06:46;86907.75;;;19.99;30.61
81151;BME280;70629;-26.026;27.976;2023-06-24T13:09:15;86904.97;;;19.97;30.11
81151;BME280;70629;-26.026;27.976;2023-06-24T13:11:44;86911.56;;;19.86;29.79
81151;BME280;70629;-26.026;27.976;2023-06-24T13:14:13;86902.91;;;19.95;29.66